Bellchester, Minnesota
Current Conditions -  °F | °C
As of 2:10 PM on Thursday 29 Jan 2015 (Local Time) from KRGK Reporting Station
Overcast Overcast  
Wind Chill: 19°   Ceiling: 2900
Heat Index: 30°   Visibility: 10mi
Dew Point: 19°   Wind: 15mph
Humidity: 64%   Direction: 310°NW
Pressure: 30.22"   Gusts: 25mph
Location:  44.4081°N, 92.5457°W
Report Text: KRGK 292010Z AUTO 31013G22KT 10SM OVC029 M01/M07 A3022 RMK AO2
Loading
Personal Weather Stations






























Interactive Weather Map New forecast layout! Learn more

10-Day Weather Forecast

Advertisements
Track Severe Weather on mobile